Latakia, Turkey
Current Conditions -  °F | °C
As of 4:00 PM on Saturday 25 Oct 2014 (Local Time) from OSLK Reporting Station
Scattered Clouds Scattered Clouds  
Wind Chill: 81°   Ceiling: Unl
Heat Index: 81°   Visibility: 6mi
Dew Point: 55°   Wind: 9mph
Humidity: 42%   Direction: 270°W
Pressure: 29.97"   Gusts: NA
Location:  35.52°N, 35.78°E
Report Text: OSLK 251300Z 27008KT 9999 FEW026 SCT200 27/13 Q1015
Loading
Personal Weather Stations






























Interactive Weather Map
Tropical Storm Tracking
New forecast layout! Learn more

10-Day Weather Forecast

Advertisements
Track Severe Weather on mobile